Portada
METAR-TAF:

METAR-TAF

Aeroports :

Làrnaca, Xipre

latitud: 34-53N, longitud: 033-38E, altitud: 2 m

Observació

L'informe es va fer fa 11 minuts, a les 16:00 UTC
Vent 11 kt del Nord/Nord-Est
Temperatura 12°C
Humitat 88%
Pressió 1016 hPa
Visibilitat: 8000 m
Escasses núvols a una alçada de 500 ft
Núvols disperses a una alçada de 3500 ft

METAR: LCLK 171600Z 02011KT 8000 FEW005 SCT035 12/10 Q1016 NOSIG

Hora: 18:11 (16:11 UTC)

Pronòstic

L'informe es va fer fa 4 hores i 41 minuts, a les 11:30 UTC
Pronòstic vàlid del 17 a les 12 UTC al 18 a les 12 UTC
Vent 15 kt del Nord-Est
Visibilitat 10 km o més
Escasses núvols a una alçada de 2000 ft
Núvols disperses a una alçada de 4000 ft
Evolucionant progressivament
l' 17 a les 15 UTC al 17 a les 19 UTC
Vent 8 kt del Nord

TAF: LCLK 171130Z 1712/1812 05015KT 9999 FEW020 SCT040 BECMG 1715/1719 35008KT

Observacions i pronòstics meteorològics de més de 4000 aeroports (METAR i TAF).

Les estacions disponibles són els punts grocs i vermells al mapa.

Posi el ratolí al punt desitjat per veure el nom de l'estació.

Feu clic per veure les observacions i els pronòstics meteorològics.

Per canviar el mapa: feu clic els botons verds amb una creu de color negre per apropar; al botó verd amb un guió per allunyar la imatge; o en les fletxes verdes per a mapes adjacents.


METAR-TAF: